»·PEaware :: N723DW KSMX-KBFL

N723DW :: KSMX-KBFL

FLIGHT INFORMATION

Flight Status: Arrived
Operator: Privately registered:
United States
More flights under this callsign
Pilot: Danny W. (23158)
Aircraft: CESSNA 172 SKYHAWK
(C172)
More flights by this aircraft type
Origin: KSMX Santa Maria Pub/Capt Hancock
United States
Destination: KBFL Meadows
United States
More flights between these airports :: More routes between these airports
Route: +
File this flight plan on PilotEdge
Remarks:
Altitude:
(Current/Filed)
0ft
Speed:
(Current/Filed)
0kts
Departed: 01-Feb-19 03:29 PM
Arrived: 01-Feb-19 04:06 PM
Distance/Time
Traveled:
76nm/0:37
Distance/Time
To Go:
Arrived

Flight Plot

Page will automatically refresh every two minutes.


Map Options




Map Legend


Flown Route
Filed Route
Departure Airport
Arrival Airport
Navaid (VOR, NDB)
Fix

Horizontal Profiles

Position Reports

Time Latitude Longitude Heading Altitude Ground
Speed
01-Feb-19 15:27 34.949471 -120.307242 75 3755ft 114kts
01-Feb-19 15:28 34.961258 -120.271302 76 4257ft 113kts
01-Feb-19 15:29 34.972910 -120.235699 76 4759ft 112kts
01-Feb-19 15:30 34.984471 -120.200282 77 5258ft 112kts
01-Feb-19 15:31 34.995857 -120.165356 68 5757ft 110kts
01-Feb-19 15:32 35.007675 -120.129059 68 5981ft 122kts
01-Feb-19 15:33 35.018596 -120.095480 68 6007ft 127kts
01-Feb-19 15:34 35.031315 -120.056311 68 5960ft 121kts
01-Feb-19 15:35 35.043350 -120.019409 64 6032ft 117kts
01-Feb-19 15:36 35.070438 -119.999377 33 6035ft 117kts
01-Feb-19 15:37 35.097609 -119.977059 33 6031ft 117kts
01-Feb-19 15:38 35.118231 -119.949604 100 6059ft 115kts
01-Feb-19 15:39 35.110676 -119.910999 98 6068ft 119kts
01-Feb-19 15:40 35.108750 -119.870629 93 6068ft 119kts
01-Feb-19 15:41 35.110266 -119.830602 73 6067ft 119kts
01-Feb-19 15:42 35.123801 -119.793714 62 6068ft 119kts
01-Feb-19 15:43 35.136617 -119.763513 62 6068ft 119kts
01-Feb-19 15:44 35.151888 -119.727563 62 6068ft 119kts
01-Feb-19 15:45 35.167151 -119.691638 62 6068ft 119kts
01-Feb-19 15:46 35.183223 -119.653742 62 5776ft 127kts
01-Feb-19 15:47 35.199509 -119.615312 62 5471ft 127kts
01-Feb-19 15:48 35.215726 -119.577018 62 5169ft 126kts
01-Feb-19 15:49 35.231915 -119.538745 62 4866ft 126kts
01-Feb-19 15:50 35.248215 -119.500174 68 4572ft 129kts
01-Feb-19 15:51 35.264871 -119.460699 67 4277ft 131kts
01-Feb-19 15:52 35.278565 -119.428222 67 4043ft 129kts
01-Feb-19 15:53 35.294303 -119.390892 67 4010ft 119kts
01-Feb-19 15:54 35.309681 -119.354287 67 3941ft 126kts
01-Feb-19 15:55 35.326247 -119.314857 67 3590ft 132kts
01-Feb-19 15:56 35.342842 -119.275329 66 3182ft 130kts
01-Feb-19 15:57 35.352737 -119.235564 83 3005ft 116kts
01-Feb-19 15:59 35.357892 -119.195770 84 2609ft 124kts
01-Feb-19 16:00 35.364671 -119.155105 79 2089ft 118kts
01-Feb-19 16:01 35.371785 -119.116493 75 1688ft 116kts
01-Feb-19 16:02 35.379789 -119.079007 76 1644ft 112kts
01-Feb-19 16:03 35.392929 -119.043865 54 1506ft 112kts
01-Feb-19 16:04 35.415747 -119.035393 326 955ft 94kts
01-Feb-19 16:05 35.432028 -119.054070 318 530ft 68kts
01-Feb-19 16:06 35.438112 -119.060221 65 510ft 0kts
01-Feb-19 16:07 35.435647 -119.056112 135 510ft 25kts
01-Feb-19 16:08 35.429400 -119.048568 136 510ft 29kts
01-Feb-19 16:09 35.428819 -119.045532 355 510ft 0kts
01-Feb-19 16:10 35.428819 -119.045532 355 510ft 0kts
01-Feb-19 16:11 35.428819 -119.045532 355 510ft 0kts
01-Feb-19 16:12 35.428819 -119.045532 355 510ft 0kts
01-Feb-19 16:13 35.428819 -119.045532 355 510ft 0kts
01-Feb-19 16:14 35.428819 -119.045532 355 510ft 0kts
01-Feb-19 16:15 35.428819 -119.045532 355 510ft 0kts
01-Feb-19 16:16 35.428819 -119.045532 355 510ft 0kts
01-Feb-19 16:17 35.428819 -119.045532 355 510ft 0kts
01-Feb-19 16:17 35.428819 -119.045532 355 510ft 0kts
01-Feb-19 16:18 35.428819 -119.045532 355 510ft 0kts
01-Feb-19 16:20 35.428819 -119.045532 355 510ft 0kts

Navigation Log

Ident Type
Flight plan parsing failed, navigation log unavailable